Arcadia, Utah
Current Conditions -  °F | °C
As of 11:53 PM on Friday 24 Oct 2014 (Local Time) from KPUC Reporting Station
Clear Clear  
Wind Chill: 50°   Ceiling: Unl
Heat Index: 50°   Visibility: 10mi
Dew Point: 32°   Wind: 8mph
Humidity: 50%   Direction: 30°NNE
Pressure: 30.28"   Gusts: NA
Location:  39.9707°N, 110.477°W
Report Text: KPUC 250553Z AUTO 03007KT 10SM CLR 10/00 A3028 RMK AO2 SLP221 T01000000 10200 20100 51005 TSNO
Loading
Personal Weather Stations






























Interactive Weather Map
Tropical Storm Tracking
New forecast layout! Learn more

10-Day Weather Forecast

Advertisements
Track Severe Weather on mobile